Ashford, CT

2:00 AM EDT on March 31, 2015 (GMT -0400)
Gurleyville Green | | Change Station
CLOSE
Current Station
Personal Weather Station
Location: Storrs Mansfield, CT
Elevation: 354 ft
Nearby Weather Stations

Elev 354 ft 41.82 °N, 72.22 °W | Updated 29 seconds ago

Scattered Clouds
Scattered Clouds
35.3 °F
Feels Like 35 °F
N
2.0
Wind Variable Wind from NNW
Gusts 3.0 mph

Today
High -- | Low -- °F
--% Chance of Precip.
Yesterday
High -- | Low -- °F
Precip. -- in
6:33 AM 7:12 PM
Waxing Gibbous, 84% visible
Pressure 29.78 in
Visibility 10.0 miles
Clouds Scattered Clouds 5500 ft
Windchill 35 °F
Dew Point 31 °F
Humidity 84%
Rainfall 0.00 in
Snow Depth Not available.
UV 0 out of 12
Pollen 7.80 out of 12
Air Quality Not available.
Flu Activity Not available.
METAR KIJD 310552Z AUTO 21003KT 10SM SCT055 02/M02 A2977 RMK AO2 SLP083 60000 T00221017 10061 21006 56008

More Conditions Fewer Conditions

Pressure 29.78 in
Visibility 10.0 miles
Clouds Scattered Clouds 5500 ft
Windchill 35 °F
Dew Point 31 °F
Humidity 84%
Rainfall 0.00 in
Snow Depth Not available.
UV 0 out of 12
Pollen 7.80 out of 12
Air Quality Not available.
Flu Activity Not available.
METAR KIJD 310552Z AUTO 21003KT 10SM SCT055 02/M02 A2977 RMK AO2 SLP083 60000 T00221017 10061 21006 56008

More Conditions Fewer Conditions

10-Day Weather Forecast

Almanac

Astronomy

Mar. 31, 2015 Rise Set
Actual Time
Civil Twilight
Nautical Twilight
Astronomical Twilight
Moon
Length of Visible Light
Length of Day
Tomorrow will be .
, % of the Moon is Illuminated

Today's Extremes

State Highs State Lows

Community

WunderPhotos

Upload Photos

1,809,724 photos uploaded!

WunderBlogs® & News

Nearby

Air Quality

  Air Quality AQ Index Pollutant
Not available.

Snow Depth

Station Depth Elevation

Earthquake Activity

City Distance Mag. Time & Date
Minimum magnitude displayed is 2.5.

Coastal Water Temperatures

Place Temperature

Stations

Nearby Weather Stations

Station Location Temp. Windchill Dew Point Humidity Wind Precip. Elev Updated Type